FZAA/FIH METAR and TAF weather

Enter ICAO airport designator
Station Type Date Time Source
FZAA METAR 2019/06/24 23:00 UTC NOAA

FZAA 242300Z 00000KT 4000 BR NSC 24/20 Q1014 NOSIG


Station Type Date Time Source
FZAA Decoded METAR 2019/06/24 23:00 UTC NOAA

Kinshasa / N'Djili, Congo, Democratic Republic of the (FZAA) 04-23S 015-26E 312M
Jun 24, 2019 - 07:00 PM EDT / 2019.06.24 2300 UTC
Wind: Calm:0
Visibility: 2 mile(s):0
Weather: mist
Temperature: 75 F (24 C)
Dew Point: 68 F (20 C)
Relative Humidity: 78%
Pressure (altimeter): 29.94 in. Hg (1014 hPa)
ob: FZAA 242300Z 00000KT 4000 BR NSC 24/20 Q1014 NOSIG
cycle: 23

Station Type Date Time Source
FZAA TAF 2019/06/24 18:57 UTC NOAA

TAF TAF FZAA 241700Z 2418/2524 27006KT 6000 NSC
BECMG 2421/2423 00000KT 4000 BR PROB30 2504/2506 0800 FG
BECMG 2509/2511 30010KT 6000 NSW SCT020

Example: see airport list